Time;durP1;ratioP1;P1;durP2;ratioP2;P2;SDS_P1;SDS_P2;PMS_P1;PMS_P2;Temp;Humidity;BMP_temperature;BMP_pressure;BME280_temperature;BME280_humidity;BME280_pressure;Samples;Min_cycle;Max_cycle;Signal;HPM_P1;HPM_P2
2021/09/12 00:00:47;;;;;;;6.15;3.15;;;17.40;92.10;;;;;;6311898;22;20019;-75
2021/09/12 00:03:15;;;;;;;7.90;3.08;;;17.40;92.20;;;;;;6319248;22;20333;-75
2021/09/12 00:05:43;;;;;;;7.30;3.10;;;17.50;92.20;;;;;;6316344;22;20222;-73
2021/09/12 00:08:10;;;;;;;8.27;3.63;;;17.50;92.20;;;;;;6318575;22;20023;-74
2021/09/12 00:10:37;;;;;;;12.38;3.92;;;17.50;91.80;;;;;;6315079;22;20034;-76
2021/09/12 00:13:10;;;;;;;6.55;3.28;;;17.40;91.90;;;;;;6318067;22;20281;-75
2021/09/12 00:15:37;;;;;;;6.43;3.10;;;17.50;92.10;;;;;;6290433;22;20241;-75
2021/09/12 00:18:05;;;;;;;10.00;3.08;;;17.40;91.90;;;;;;6316032;22;20023;-75
2021/09/12 00:20:33;;;;;;;7.90;2.90;;;17.30;92.20;;;;;;6316144;22;20015;-76
2021/09/12 00:23:00;;;;;;;7.10;3.38;;;17.30;92.60;;;;;;6315082;22;20015;-76
2021/09/12 00:25:29;;;;;;;6.07;3.20;;;17.30;92.70;;;;;;6316439;22;20047;-75
2021/09/12 00:27:57;;;;;;;6.40;3.38;;;17.30;92.70;;;;;;6318134;22;20061;-75
2021/09/12 00:30:25;;;;;;;5.18;2.70;;;17.30;93.00;;;;;;6316279;22;20263;-75
2021/09/12 00:32:52;;;;;;;7.38;3.17;;;17.30;93.00;;;;;;6316649;22;20023;-75
2021/09/12 00:35:20;;;;;;;6.25;3.28;;;17.10;92.50;;;;;;6316824;22;20030;-75
2021/09/12 00:37:50;;;;;;;6.03;2.90;;;17.10;92.60;;;;;;6290102;22;20038;-75
2021/09/12 00:40:19;;;;;;;7.90;3.50;;;17.00;92.70;;;;;;6317544;22;20326;-75
2021/09/12 00:42:47;;;;;;;7.15;3.38;;;17.10;92.70;;;;;;6316871;22;20030;-75
2021/09/12 00:45:14;;;;;;;7.93;3.13;;;17.00;92.80;;;;;;6316579;22;20023;-75
2021/09/12 00:47:46;;;;;;;8.75;3.50;;;17.10;92.70;;;;;;6316968;22;20215;-75
2021/09/12 00:50:14;;;;;;;8.65;3.50;;;17.10;92.20;;;;;;6315172;22;20315;-75
2021/09/12 00:52:45;;;;;;;5.70;2.85;;;17.00;91.90;;;;;;6316592;22;20334;-75
2021/09/12 00:55:13;;;;;;;7.97;3.38;;;17.10;91.90;;;;;;6286993;22;20022;-76
2021/09/12 00:57:43;;;;;;;6.40;2.72;;;17.00;91.90;;;;;;6315195;22;20027;-75
2021/09/12 01:00:11;;;;;;;5.03;2.22;;;17.00;92.30;;;;;;6309944;22;20364;-75
2021/09/12 01:02:39;;;;;;;5.57;2.03;;;16.90;92.50;;;;;;6315279;22;20027;-74
2021/09/12 01:05:10;;;;;;;6.40;2.38;;;16.90;92.70;;;;;;6315408;22;20015;-74
2021/09/12 01:07:39;;;;;;;4.97;2.40;;;16.90;92.60;;;;;;6287635;22;20027;-75
2021/09/12 01:10:09;;;;;;;7.30;2.25;;;16.90;92.80;;;;;;6315239;22;20041;-74
2021/09/12 01:12:37;;;;;;;7.53;2.75;;;16.80;92.90;;;;;;6314896;22;20027;-75
2021/09/12 01:15:06;;;;;;;5.47;2.42;;;16.90;93.00;;;;;;6288675;22;20023;-75
2021/09/12 01:17:52;;;;;;;5.31;2.37;;;16.90;93.10;;;;;;1142825;22;10150168;-76
2021/09/12 01:20:21;;;;;;;6.22;2.55;;;16.90;93.00;;;;;;6314231;22;20367;-75
2021/09/12 01:22:48;;;;;;;6.13;2.58;;;16.90;93.00;;;;;;6314569;22;20050;-76
2021/09/12 01:25:16;;;;;;;4.60;2.30;;;16.90;92.90;;;;;;6314711;22;20011;-75
2021/09/12 01:27:44;;;;;;;5.63;2.45;;;16.90;92.70;;;;;;6287522;22;20015;-76
2021/09/12 01:30:12;;;;;;;6.63;2.95;;;16.90;92.50;;;;;;6315033;22;20023;-74
2021/09/12 01:32:39;;;;;;;6.30;2.05;;;16.80;92.50;;;;;;6314258;22;20318;-75
2021/09/12 01:35:08;;;;;;;6.72;2.42;;;16.70;92.30;;;;;;6317261;22;20376;-74
2021/09/12 01:37:35;;;;;;;6.75;2.78;;;16.80;92.70;;;;;;6288818;22;20019;-75
2021/09/12 01:40:02;;;;;;;6.28;3.08;;;16.90;92.60;;;;;;6316847;22;20015;-75
2021/09/12 01:42:32;;;;;;;5.60;2.28;;;16.90;92.50;;;;;;6317170;22;20034;-74
2021/09/12 01:44:59;;;;;;;7.20;2.63;;;16.90;92.20;;;;;;6316919;22;20015;-75
2021/09/12 01:47:26;;;;;;;6.15;3.05;;;16.90;92.20;;;;;;6316432;22;20090;-76
2021/09/12 01:49:53;;;;;;;6.35;2.72;;;16.90;92.20;;;;;;6316755;22;20342;-75
2021/09/12 01:52:21;;;;;;;9.00;2.58;;;16.80;92.10;;;;;;6314285;22;20030;-74
2021/09/12 01:54:48;;;;;;;8.57;2.20;;;16.80;92.00;;;;;;6288300;22;20027;-75
2021/09/12 01:57:15;;;;;;;7.75;2.72;;;16.70;92.00;;;;;;6315764;22;20023;-75
2021/09/12 01:59:44;;;;;;;7.25;3.72;;;16.80;92.10;;;;;;6316277;22;20210;-76
2021/09/12 02:02:11;;;;;;;9.55;4.47;;;16.60;91.90;;;;;;6311567;22;20030;-75
2021/09/12 02:04:39;;;;;;;8.90;4.03;;;16.60;92.10;;;;;;6316239;22;20023;-74
2021/09/12 02:07:06;;;;;;;8.88;3.70;;;16.70;92.10;;;;;;6316881;22;20330;-76
2021/09/12 02:09:35;;;;;;;5.07;2.33;;;16.70;92.10;;;;;;6315944;22;20030;-75
2021/09/12 02:12:03;;;;;;;10.70;4.28;;;16.70;92.30;;;;;;6316975;22;20409;-74
2021/09/12 02:14:31;;;;;;;8.43;4.13;;;16.80;92.20;;;;;;6317553;22;20034;-74
2021/09/12 02:16:59;;;;;;;10.90;4.38;;;16.70;92.20;;;;;;6316992;22;20026;-74
2021/09/12 02:19:26;;;;;;;10.98;3.88;;;16.70;91.90;;;;;;6288122;22;20023;-76
2021/09/12 02:21:53;;;;;;;7.05;3.92;;;16.70;91.90;;;;;;6314609;22;20074;-75
2021/09/12 02:24:21;;;;;;;10.38;4.57;;;16.60;91.70;;;;;;6315750;22;20214;-75
2021/09/12 02:26:48;;;;;;;8.82;3.95;;;16.70;91.40;;;;;;6316131;22;20019;-75
2021/09/12 02:29:15;;;;;;;8.55;4.25;;;16.70;91.50;;;;;;6314738;22;20038;-75
2021/09/12 02:31:42;;;;;;;9.10;4.30;;;16.60;91.70;;;;;;6315882;22;20037;-76
2021/09/12 02:34:11;;;;;;;11.60;4.40;;;16.60;91.60;;;;;;6315492;22;20058;-75
2021/09/12 02:36:38;;;;;;;9.50;4.22;;;16.60;92.10;;;;;;6314279;22;20417;-74
2021/09/12 02:39:05;;;;;;;10.88;4.60;;;16.60;92.00;;;;;;6314534;22;20015;-74
2021/09/12 02:41:32;;;;;;;9.32;3.97;;;16.60;92.00;;;;;;6314103;22;20369;-75
2021/09/12 02:44:00;;;;;;;12.18;4.60;;;16.60;91.90;;;;;;6314083;22;20026;-75
2021/09/12 02:46:28;;;;;;;11.40;3.92;;;16.60;91.80;;;;;;6286758;22;20031;-76
2021/09/12 02:48:55;;;;;;;7.80;3.85;;;16.50;92.10;;;;;;6314162;22;20023;-75
2021/09/12 02:51:24;;;;;;;8.93;3.85;;;16.60;92.30;;;;;;6285376;22;20027;-74
2021/09/12 02:53:51;;;;;;;11.07;5.03;;;16.60;92.00;;;;;;6312566;22;20015;-74
2021/09/12 02:56:19;;;;;;;11.65;4.60;;;16.50;91.90;;;;;;6313961;22;20023;-76
2021/09/12 02:58:46;;;;;;;8.65;4.30;;;16.50;91.50;;;;;;6313350;22;20023;-75
2021/09/12 03:01:13;;;;;;;7.38;4.15;;;16.60;91.40;;;;;;6308984;22;20023;-74
2021/09/12 03:03:41;;;;;;;11.05;4.93;;;16.60;91.10;;;;;;6313316;22;20330;-75
2021/09/12 03:06:14;;;;;;;9.88;4.60;;;16.60;91.50;;;;;;6314105;22;20015;-75
2021/09/12 03:08:43;;;;;;;13.07;5.50;;;16.50;91.60;;;;;;6315056;22;20069;-75
2021/09/12 03:11:10;;;;;;;7.63;4.18;;;16.50;91.60;;;;;;6317043;22;20023;-76
2021/09/12 03:13:45;;;;;;;10.05;4.57;;;16.60;91.60;;;;;;6316466;22;20049;-74
2021/09/12 03:16:12;;;;;;;11.13;5.30;;;16.60;91.30;;;;;;6318253;22;20023;-76
2021/09/12 03:18:40;;;;;;;12.63;5.65;;;16.60;91.10;;;;;;6319161;22;20046;-74
2021/09/12 03:21:07;;;;;;;20.80;7.05;;;16.50;91.10;;;;;;6317047;22;20033;-75
2021/09/12 03:23:43;;;;;;;12.00;5.40;;;16.60;91.00;;;;;;6289853;22;20033;-75
2021/09/12 03:26:10;;;;;;;9.17;5.23;;;16.60;90.90;;;;;;6317058;22;20015;-75
2021/09/12 03:28:38;;;;;;;10.48;5.55;;;16.70;90.90;;;;;;6316929;22;20722;-75
2021/09/12 03:31:05;;;;;;;11.75;6.13;;;16.70;90.90;;;;;;6317835;22;20078;-75
2021/09/12 03:33:33;;;;;;;11.55;5.78;;;16.70;90.40;;;;;;6290413;22;20019;-76
2021/09/12 03:36:01;;;;;;;15.82;6.03;;;16.70;90.70;;;;;;6317571;22;20069;-74
2021/09/12 03:38:35;;;;;;;11.52;5.70;;;16.60;90.80;;;;;;6317462;22;20034;-76
2021/09/12 03:41:03;;;;;;;13.32;5.30;;;16.60;90.70;;;;;;6290317;22;20030;-75
2021/09/12 03:43:31;;;;;;;11.88;5.35;;;16.60;90.80;;;;;;6290121;22;20073;-75
2021/09/12 03:45:58;;;;;;;12.38;5.15;;;16.60;90.50;;;;;;6317607;22;20023;-74
2021/09/12 03:48:26;;;;;;;13.63;5.05;;;16.60;90.50;;;;;;6317215;22;20035;-75
2021/09/12 03:50:53;;;;;;;12.02;5.18;;;16.70;90.20;;;;;;6318229;22;20038;-74
2021/09/12 03:53:21;;;;;;;9.55;3.88;;;16.70;90.30;;;;;;6316864;22;20253;-74
2021/09/12 03:55:48;;;;;;;8.57;2.97;;;16.70;89.90;;;;;;6317561;22;20077;-74
2021/09/12 03:58:17;;;;;;;5.78;2.80;;;16.70;90.00;;;;;;6317625;22;20017;-74
2021/09/12 04:00:44;;;;;;;6.18;2.80;;;16.70;89.60;;;;;;6312181;22;20022;-74
2021/09/12 04:03:11;;;;;;;6.72;3.00;;;16.60;89.60;;;;;;6317845;22;20323;-76
2021/09/12 04:05:38;;;;;;;5.32;2.83;;;16.60;89.90;;;;;;6317327;22;20207;-75
2021/09/12 04:08:05;;;;;;;8.70;2.92;;;16.60;89.60;;;;;;6317686;22;20030;-76
2021/09/12 04:10:33;;;;;;;5.90;2.90;;;16.60;90.00;;;;;;6317707;22;20023;-75
2021/09/12 04:13:01;;;;;;;11.77;3.08;;;16.60;89.70;;;;;;6317357;22;20015;-75
2021/09/12 04:15:30;;;;;;;6.68;2.97;;;16.60;89.80;;;;;;6316130;22;20070;-75
2021/09/12 04:17:57;;;;;;;6.18;2.80;;;16.60;89.60;;;;;;6315742;22;20034;-75
2021/09/12 04:20:25;;;;;;;5.78;2.78;;;16.60;89.50;;;;;;6315277;22;20019;-75
2021/09/12 04:22:52;;;;;;;6.68;2.65;;;16.50;89.50;;;;;;6314864;22;20302;-75
2021/09/12 04:25:19;;;;;;;8.65;3.30;;;16.50;89.50;;;;;;6315890;22;20195;-75
2021/09/12 04:27:46;;;;;;;7.65;3.33;;;16.40;89.70;;;;;;6315464;22;20183;-74
2021/09/12 04:30:15;;;;;;;9.35;4.25;;;16.50;90.00;;;;;;6315431;22;20023;-75
2021/09/12 04:32:43;;;;;;;11.05;4.47;;;16.40;90.40;;;;;;6314248;22;20388;-75
2021/09/12 04:35:11;;;;;;;10.77;4.90;;;16.40;90.70;;;;;;6315525;22;20015;-75
2021/09/12 04:37:39;;;;;;;11.77;4.82;;;16.40;90.70;;;;;;6314194;22;20026;-75
2021/09/12 04:40:07;;;;;;;10.40;5.18;;;16.50;90.60;;;;;;6315327;22;20032;-75
2021/09/12 04:42:35;;;;;;;8.02;4.82;;;16.40;90.50;;;;;;6287327;22;20022;-75
2021/09/12 04:45:06;;;;;;;9.32;4.40;;;16.20;91.00;;;;;;6315731;22;20509;-75
2021/09/12 04:47:33;;;;;;;9.57;4.00;;;16.20;91.10;;;;;;6315057;22;20031;-76
2021/09/12 04:50:02;;;;;;;9.25;4.25;;;16.10;91.00;;;;;;6315493;22;20037;-76
2021/09/12 04:52:29;;;;;;;8.80;4.75;;;16.10;91.20;;;;;;6315273;22;20053;-76
2021/09/12 04:54:56;;;;;;;8.27;3.90;;;16.10;91.30;;;;;;6316298;22;20307;-75
2021/09/12 04:57:23;;;;;;;8.70;4.13;;;16.10;91.40;;;;;;6315192;22;20083;-75
2021/09/12 04:59:51;;;;;;;8.02;3.65;;;16.10;91.20;;;;;;6316796;22;20019;-75
2021/09/12 05:02:18;;;;;;;9.30;4.93;;;16.20;91.10;;;;;;6312445;22;20079;-74
2021/09/12 05:04:45;;;;;;;9.48;4.57;;;16.30;90.90;;;;;;6315357;22;20030;-74
2021/09/12 05:07:14;;;;;;;11.75;4.95;;;16.20;90.70;;;;;;6316995;22;20023;-75
2021/09/12 05:09:41;;;;;;;9.38;4.97;;;16.30;90.70;;;;;;6316457;22;20019;-75
2021/09/12 05:12:08;;;;;;;10.73;4.28;;;16.20;90.30;;;;;;6317620;22;20027;-75
2021/09/12 05:14:36;;;;;;;6.32;2.85;;;16.20;90.50;;;;;;6316426;22;20222;-74
2021/09/12 05:17:04;;;;;;;8.05;3.20;;;16.20;89.80;;;;;;6316718;22;20035;-74
2021/09/12 05:19:31;;;;;;;6.90;3.40;;;16.20;89.50;;;;;;6317051;22;20027;-75
2021/09/12 05:21:58;;;;;;;7.65;3.25;;;16.20;89.70;;;;;;6317624;22;20015;-75
2021/09/12 05:24:27;;;;;;;9.13;4.05;;;16.30;89.50;;;;;;6314996;22;20025;-75
2021/09/12 05:26:54;;;;;;;12.02;4.25;;;16.30;89.60;;;;;;6316769;22;20015;-75
2021/09/12 05:29:23;;;;;;;8.48;3.67;;;16.30;89.40;;;;;;6315988;22;20027;-75
2021/09/12 05:31:50;;;;;;;9.13;4.15;;;16.30;89.40;;;;;;6316607;22;20048;-75
2021/09/12 05:34:18;;;;;;;11.35;4.70;;;16.30;89.60;;;;;;6289177;22;20263;-76
2021/09/12 05:36:45;;;;;;;11.65;4.60;;;16.30;89.30;;;;;;6316004;22;20206;-75
2021/09/12 05:39:12;;;;;;;9.02;4.05;;;16.20;89.20;;;;;;6316575;22;20271;-75
2021/09/12 05:41:41;;;;;;;15.13;4.85;;;16.10;89.50;;;;;;6316838;22;20031;-74
2021/09/12 05:44:08;;;;;;;10.77;4.82;;;16.20;89.50;;;;;;6316980;22;20074;-75
2021/09/12 05:46:36;;;;;;;9.55;4.07;;;16.30;89.50;;;;;;6316690;22;20218;-75
2021/09/12 05:49:04;;;;;;;12.90;5.45;;;16.30;89.00;;;;;;6317050;22;20011;-76
2021/09/12 05:51:32;;;;;;;9.07;4.05;;;16.20;88.90;;;;;;6316952;22;20019;-75
2021/09/12 05:53:59;;;;;;;9.25;4.05;;;16.10;88.90;;;;;;6289641;22;20022;-75
2021/09/12 05:56:26;;;;;;;9.10;4.10;;;16.10;89.00;;;;;;6314929;22;20015;-74
2021/09/12 05:58:54;;;;;;;14.52;4.60;;;16.10;89.10;;;;;;6313066;22;20043;-75
2021/09/12 06:01:22;;;;;;;11.30;4.35;;;16.10;89.10;;;;;;6309811;22;20030;-75
2021/09/12 06:03:49;;;;;;;8.52;3.95;;;16.10;89.00;;;;;;6287324;22;20037;-74
2021/09/12 06:06:16;;;;;;;9.63;3.95;;;16.10;88.90;;;;;;6315693;22;20020;-75
2021/09/12 06:08:43;;;;;;;8.68;3.97;;;16.20;89.10;;;;;;6314500;22;20033;-75
2021/09/12 06:11:11;;;;;;;10.82;4.05;;;16.30;88.50;;;;;;6314920;22;20077;-75
2021/09/12 06:13:38;;;;;;;11.32;4.80;;;16.30;88.50;;;;;;6313765;22;20026;-75
2021/09/12 06:16:08;;;;;;;9.77;4.30;;;16.40;88.20;;;;;;6313649;22;20230;-75
2021/09/12 06:18:35;;;;;;;9.25;4.43;;;16.40;88.10;;;;;;6287463;22;20200;-76
2021/09/12 06:21:03;;;;;;;12.57;5.60;;;16.50;88.00;;;;;;6287847;22;20031;-75
2021/09/12 06:23:33;;;;;;;10.57;5.00;;;16.50;88.10;;;;;;6315114;22;20068;-74
2021/09/12 06:26:00;;;;;;;11.40;5.05;;;16.40;88.20;;;;;;6314664;22;20015;-75
2021/09/12 06:28:28;;;;;;;13.57;6.05;;;16.60;87.90;;;;;;6314313;22;20347;-75
2021/09/12 06:30:55;;;;;;;12.52;6.20;;;16.90;87.30;;;;;;6288852;22;20349;-75
2021/09/12 06:33:24;;;;;;;11.48;5.72;;;17.00;86.50;;;;;;6316116;22;20031;-75
2021/09/12 06:35:51;;;;;;;12.52;6.15;;;17.00;86.70;;;;;;6316774;22;20025;-74
2021/09/12 06:38:18;;;;;;;15.35;6.97;;;17.00;86.60;;;;;;6316768;22;20156;-73
2021/09/12 06:40:46;;;;;;;12.93;6.07;;;17.10;86.30;;;;;;6316082;22;20015;-74
2021/09/12 06:43:13;;;;;;;12.60;6.13;;;17.30;86.00;;;;;;6315986;22;20069;-75
2021/09/12 06:45:40;;;;;;;12.05;6.35;;;17.30;85.60;;;;;;6315888;22;20054;-76
2021/09/12 06:48:07;;;;;;;12.63;6.07;;;17.40;85.50;;;;;;6316224;22;20039;-75
2021/09/12 06:50:39;;;;;;;14.07;6.43;;;17.50;85.20;;;;;;6315747;22;20039;-75
2021/09/12 06:53:06;;;;;;;12.15;6.07;;;17.30;85.00;;;;;;6316558;22;20015;-74
2021/09/12 06:55:33;;;;;;;11.93;6.10;;;17.30;85.60;;;;;;6316039;22;20026;-75
2021/09/12 06:58:00;;;;;;;13.05;6.30;;;17.40;85.30;;;;;;6317192;22;20070;-74
2021/09/12 07:00:34;;;;;;;13.63;6.80;;;17.40;85.20;;;;;;6309147;22;20057;-75
2021/09/12 07:03:02;;;;;;;12.73;6.50;;;17.40;85.00;;;;;;6288272;22;20027;-76
2021/09/12 07:05:29;;;;;;;14.48;6.43;;;17.50;85.10;;;;;;6316024;22;20072;-75
2021/09/12 07:07:58;;;;;;;12.40;5.82;;;17.70;85.00;;;;;;6316515;22;20039;-74
2021/09/12 07:10:25;;;;;;;12.13;6.03;;;17.60;84.30;;;;;;6316052;22;20191;-75
2021/09/12 07:13:07;;;;;;;13.00;6.80;;;17.40;84.80;;;;;;6315550;22;20026;-75
2021/09/12 07:15:42;;;;;;;;;;;17.50;85.10;;;;;;6316097;22;24575;-74
2021/09/12 07:18:09;;;;;;;11.35;5.07;;;17.70;84.40;;;;;;6288542;22;19918;-75
2021/09/12 07:20:36;;;;;;;12.85;6.28;;;17.80;84.00;;;;;;6315637;22;20065;-75
2021/09/12 07:23:06;;;;;;;12.32;5.25;;;17.60;85.00;;;;;;6316033;22;20073;-75
2021/09/12 07:25:34;;;;;;;12.65;5.32;;;17.60;85.10;;;;;;6316696;22;20057;-74
2021/09/12 07:28:01;;;;;;;10.95;5.43;;;17.40;84.80;;;;;;6317035;22;20100;-74
2021/09/12 07:30:30;;;;;;;9.23;5.18;;;17.40;84.80;;;;;;6315845;22;20030;-75
2021/09/12 07:32:58;;;;;;;11.55;6.07;;;17.40;85.10;;;;;;6316197;22;20011;-75
2021/09/12 07:35:25;;;;;;;9.90;5.25;;;17.50;84.50;;;;;;6315542;22;20020;-76
2021/09/12 07:37:52;;;;;;;10.93;4.85;;;17.60;84.70;;;;;;6315007;22;20015;-75
2021/09/12 07:40:21;;;;;;;16.20;5.63;;;17.60;84.10;;;;;;6287923;22;20015;-75
2021/09/12 07:42:49;;;;;;;12.02;5.07;;;17.60;84.40;;;;;;6314172;22;20228;-75
2021/09/12 07:45:16;;;;;;;10.63;5.60;;;17.60;84.60;;;;;;6313704;22;20068;-74
2021/09/12 07:47:43;;;;;;;10.05;4.57;;;17.60;84.40;;;;;;6314397;22;20265;-75
2021/09/12 07:50:11;;;;;;;12.60;5.93;;;17.70;84.70;;;;;;6315054;22;20008;-75
2021/09/12 07:52:42;;;;;;;10.32;4.90;;;17.70;84.50;;;;;;6287022;22;20027;-75
2021/09/12 07:55:10;;;;;;;8.52;4.40;;;17.70;84.20;;;;;;6315270;22;20023;-75
2021/09/12 07:57:39;;;;;;;9.73;4.75;;;18.10;83.70;;;;;;6314840;22;20025;-75
2021/09/12 08:00:17;;;;;;;12.90;5.05;;;18.20;82.20;;;;;;6313930;22;20235;-75
2021/09/12 08:02:44;;;;;;;9.10;4.90;;;18.50;82.20;;;;;;6289122;22;20310;-75
2021/09/12 08:05:13;;;;;;;9.98;5.53;;;18.90;81.20;;;;;;6316316;22;20023;-76
2021/09/12 08:07:40;;;;;;;9.32;5.28;;;19.10;80.00;;;;;;6315816;22;20015;-76
2021/09/12 08:10:08;;;;;;;11.18;5.30;;;19.20;79.00;;;;;;6290551;22;20015;-75
2021/09/12 08:12:37;;;;;;;11.30;5.55;;;19.40;78.50;;;;;;6316738;22;20033;-76
2021/09/12 08:15:06;;;;;;;14.38;5.47;;;19.60;78.20;;;;;;6315069;22;20179;-75
2021/09/12 08:17:33;;;;;;;10.85;5.15;;;19.60;78.60;;;;;;6318144;22;20026;-75
2021/09/12 08:20:00;;;;;;;14.68;6.13;;;19.60;78.50;;;;;;6291161;22;20015;-75
2021/09/12 08:22:30;;;;;;;11.88;6.10;;;19.50;78.50;;;;;;6318027;22;20243;-75
2021/09/12 08:24:57;;;;;;;10.73;5.75;;;19.30;79.10;;;;;;6317965;22;20015;-75
2021/09/12 08:27:24;;;;;;;12.27;6.95;;;19.30;79.50;;;;;;6317254;22;20015;-75
2021/09/12 08:29:53;;;;;;;13.20;6.45;;;19.20;79.70;;;;;;6318175;22;20046;-75
2021/09/12 08:32:20;;;;;;;12.38;6.97;;;19.30;79.80;;;;;;6320435;22;20015;-75
2021/09/12 08:34:47;;;;;;;12.40;7.13;;;19.30;79.10;;;;;;6319849;22;20019;-75
2021/09/12 08:37:14;;;;;;;13.52;7.25;;;19.20;79.50;;;;;;6317677;22;20029;-76
2021/09/12 08:39:44;;;;;;;13.18;6.88;;;19.30;79.00;;;;;;6317076;22;20007;-75
2021/09/12 08:42:15;;;;;;;15.27;7.72;;;19.40;78.70;;;;;;6318260;22;20015;-75
2021/09/12 08:44:46;;;;;;;11.60;6.60;;;19.60;78.60;;;;;;6317973;22;20027;-75
2021/09/12 08:47:16;;;;;;;11.00;6.45;;;19.80;77.50;;;;;;6319169;22;20019;-75
2021/09/12 08:49:44;;;;;;;;;;;20.10;77.30;;;;;;6318187;22;20023;-75
2021/09/12 08:52:13;;;;;;;11.77;6.45;;;20.10;76.10;;;;;;6318177;22;20195;-75
2021/09/12 08:54:41;;;;;;;10.85;5.90;;;20.10;76.50;;;;;;6290637;22;20074;-75
2021/09/12 08:57:08;;;;;;;9.77;5.88;;;20.40;75.80;;;;;;6319411;22;20022;-76
2021/09/12 08:59:36;;;;;;;11.95;6.30;;;20.70;76.10;;;;;;6318648;22;20215;-74
2021/09/12 09:02:05;;;;;;;10.48;5.95;;;20.80;75.00;;;;;;6311934;22;20043;-75
2021/09/12 09:04:36;;;;;;;9.65;5.32;;;21.30;74.70;;;;;;6317469;22;20341;-74
2021/09/12 09:07:05;;;;;;;10.55;6.30;;;21.60;72.50;;;;;;6317292;22;20088;-74
2021/09/12 09:09:40;;;;;;;10.18;6.72;;;21.90;72.20;;;;;;6317400;22;20341;-74
2021/09/12 09:12:25;;;;;;;10.15;6.05;;;21.70;71.70;;;;;;6317186;22;20030;-76
2021/09/12 09:15:08;;;;;;;10.05;5.97;;;21.60;71.70;;;;;;6316677;22;20023;-76
2021/09/12 09:17:40;;;;;;;12.02;6.20;;;21.00;73.30;;;;;;6289705;22;20022;-75
2021/09/12 09:20:11;;;;;;;14.95;7.10;;;21.40;73.10;;;;;;6316481;22;20045;-75
2021/09/12 09:22:40;;;;;;;10.13;6.10;;;21.50;72.10;;;;;;6314997;22;20019;-74
2021/09/12 09:25:10;;;;;;;10.63;6.43;;;21.40;72.40;;;;;;6317420;22;20279;-74
2021/09/12 09:27:58;;;;;;;10.55;5.45;;;21.80;70.40;;;;;;6317626;22;20018;-74
2021/09/12 09:30:26;;;;;;;10.63;5.38;;;22.20;69.10;;;;;;6315444;22;20043;-75
2021/09/12 09:32:54;;;;;;;10.18;5.68;;;21.80;69.40;;;;;;6315304;22;20026;-76
2021/09/12 09:35:26;;;;;;;10.20;5.57;;;21.70;71.00;;;;;;6315671;22;20196;-74
2021/09/12 09:37:54;;;;;;;9.63;5.93;;;22.00;70.70;;;;;;6315047;22;20019;-75
2021/09/12 09:40:21;;;;;;;9.23;5.53;;;22.90;67.70;;;;;;6316654;22;20016;-74
2021/09/12 09:42:49;;;;;;;9.80;5.55;;;22.80;66.60;;;;;;6316299;22;20211;-74
2021/09/12 09:45:18;;;;;;;8.02;4.93;;;22.90;66.60;;;;;;6318981;22;20039;-75
2021/09/12 09:47:47;;;;;;;9.13;4.75;;;23.90;63.60;;;;;;6321478;22;20007;-75
2021/09/12 09:50:16;;;;;;;8.90;4.88;;;24.50;61.70;;;;;;6315788;22;20086;-76
2021/09/12 09:52:47;;;;;;;7.50;4.20;;;25.50;58.30;;;;;;6315730;22;20034;-74
2021/09/12 09:55:16;;;;;;;9.68;4.20;;;26.20;55.50;;;;;;6317185;22;20027;-75
2021/09/12 09:57:44;;;;;;;8.68;3.75;;;25.90;56.80;;;;;;6317582;22;20054;-76
2021/09/12 10:00:12;;;;;;;6.65;3.83;;;26.30;54.20;;;;;;6312780;22;20023;-76
2021/09/12 10:02:42;;;;;;;6.22;4.03;;;26.30;54.80;;;;;;6317320;22;20241;-75
2021/09/12 10:05:12;;;;;;;5.10;2.97;;;26.10;54.90;;;;;;6315772;22;20372;-74
2021/09/12 10:07:41;;;;;;;6.50;3.80;;;27.30;53.40;;;;;;6316749;22;20051;-74
2021/09/12 10:10:13;;;;;;;6.63;3.35;;;27.40;52.20;;;;;;6316958;22;20030;-74
2021/09/12 10:12:46;;;;;;;6.30;3.20;;;28.40;50.20;;;;;;6315582;22;20019;-75
2021/09/12 10:15:18;;;;;;;6.13;3.28;;;29.30;47.20;;;;;;6316970;22;20057;-75
2021/09/12 10:17:47;;;;;;;6.47;2.80;;;27.60;50.60;;;;;;6316412;22;20031;-75
2021/09/12 10:20:16;;;;;;;6.40;3.50;;;29.40;48.10;;;;;;6317600;22;20072;-75
2021/09/12 10:22:50;;;;;;;;;;;30.40;44.70;;;;;;6317133;22;20019;-75
2021/09/12 10:25:20;;;;;;;8.20;3.00;;;30.70;44.60;;;;;;6316489;22;19941;-75
2021/09/12 10:27:49;;;;;;;5.18;2.28;;;29.80;44.60;;;;;;6316425;22;20023;-74
2021/09/12 10:30:33;;;;;;;6.68;2.53;;;30.00;43.90;;;;;;6316398;22;20015;-75
2021/09/12 10:33:20;;;;;;;3.90;2.35;;;29.30;45.20;;;;;;6316843;22;20030;-75
2021/09/12 10:35:59;;;;;;;5.70;2.00;;;28.30;47.60;;;;;;6316441;22;20225;-75
2021/09/12 10:38:31;;;;;;;7.05;1.88;;;29.50;43.90;;;;;;6288985;22;20281;-75
2021/09/12 10:41:19;;;;;;;6.57;2.08;;;29.80;43.90;;;;;;6317374;22;20315;-74
2021/09/12 10:43:50;;;;;;;4.22;1.90;;;27.90;47.60;;;;;;6316395;22;20049;-74
2021/09/12 10:46:28;;;;;;;4.68;2.20;;;26.80;50.20;;;;;;6317468;22;20060;-74
2021/09/12 10:49:17;;;;;;;3.08;1.83;;;26.30;52.20;;;;;;6316316;22;20323;-75
2021/09/12 10:51:45;;;;;;;3.70;2.20;;;27.40;49.50;;;;;;6316375;22;20031;-75
2021/09/12 10:54:13;;;;;;;2.92;1.70;;;26.20;50.50;;;;;;6316362;22;20015;-75
2021/09/12 10:56:42;;;;;;;4.70;1.90;;;27.30;49.90;;;;;;6314418;22;20019;-74
2021/09/12 10:59:11;;;;;;;3.90;1.20;;;28.50;46.20;;;;;;6317235;22;20074;-75
2021/09/12 11:01:42;;;;;;;3.58;1.63;;;29.40;46.00;;;;;;6309923;22;20062;-74
2021/09/12 11:04:10;;;;;;;6.78;1.70;;;29.80;43.10;;;;;;6314762;22;20079;-75
2021/09/12 11:06:39;;;;;;;2.97;1.20;;;29.90;41.70;;;;;;6314899;22;20027;-74
2021/09/12 11:09:19;;;;;;;5.07;1.70;;;31.00;39.80;;;;;;6288095;22;20015;-74
2021/09/12 11:11:48;;;;;;;3.03;1.58;;;31.10;39.50;;;;;;6314533;22;20245;-75
2021/09/12 11:14:15;;;;;;;;;;;32.00;38.80;;;;;;6314826;22;20342;-75
2021/09/12 11:16:43;;;;;;;3.25;1.50;;;33.60;36.50;;;;;;6312768;22;20260;-75
2021/09/12 11:19:10;;;;;;;3.17;1.20;;;31.90;37.60;;;;;;6314580;22;20340;-74
2021/09/12 11:21:40;;;;;;;3.22;1.33;;;31.10;39.40;;;;;;6314366;22;20341;-75
2021/09/12 11:24:09;;;;;;;4.55;1.20;;;31.90;38.40;;;;;;6314795;22;20023;-75
2021/09/12 11:26:42;;;;;;;2.00;1.00;;;32.60;37.00;;;;;;6314036;22;20083;-75
2021/09/12 11:29:12;;;;;;;3.03;1.10;;;32.60;36.80;;;;;;6314615;22;20023;-75
2021/09/12 11:31:42;;;;;;;2.42;1.00;;;33.00;33.80;;;;;;6315614;22;20200;-74
2021/09/12 11:34:10;;;;;;;3.15;0.90;;;33.00;34.00;;;;;;6317133;22;20023;-74
2021/09/12 11:36:42;;;;;;;2.55;0.90;;;33.40;33.50;;;;;;6290645;22;20074;-75
2021/09/12 11:39:09;;;;;;;1.83;0.98;;;33.80;33.50;;;;;;6318617;22;20015;-77
2021/09/12 11:41:37;;;;;;;2.17;1.02;;;32.50;34.40;;;;;;6318310;22;20056;-74
2021/09/12 11:44:04;;;;;;;1.58;0.93;;;33.70;32.80;;;;;;6318675;22;20046;-73
2021/09/12 11:46:33;;;;;;;1.63;0.90;;;32.50;34.10;;;;;;6317384;22;20118;-75
2021/09/12 11:49:02;;;;;;;2.65;1.00;;;32.10;34.70;;;;;;6318614;22;20023;-75
2021/09/12 11:51:32;;;;;;;1.42;0.82;;;32.40;34.30;;;;;;6318605;22;20077;-74
2021/09/12 11:54:07;;;;;;;3.67;1.27;;;33.20;33.50;;;;;;6291123;22;20191;-74
2021/09/12 11:56:35;;;;;;;2.08;0.93;;;34.90;31.90;;;;;;6317827;22;20042;-76
2021/09/12 11:59:03;;;;;;;1.67;0.82;;;34.40;30.00;;;;;;6317896;22;20067;-74
2021/09/12 12:01:32;;;;;;;2.47;1.05;;;33.80;32.40;;;;;;6313491;22;20065;-75
2021/09/12 12:04:02;;;;;;;3.30;1.13;;;35.30;29.70;;;;;;6318044;22;20030;-75
2021/09/12 12:06:30;;;;;;;2.33;1.17;;;34.80;29.50;;;;;;6317349;22;20323;-75
2021/09/12 12:09:09;;;;;;;2.80;1.15;;;35.60;28.50;;;;;;6315337;22;20015;-74
2021/09/12 12:11:39;;;;;;;2.97;0.80;;;35.30;28.30;;;;;;6317201;22;20077;-75
2021/09/12 12:14:08;;;;;;;1.92;1.02;;;32.10;32.70;;;;;;6317782;22;20019;-76
2021/09/12 12:16:42;;;;;;;0.80;0.60;;;32.40;32.90;;;;;;6315683;22;20019;-75
2021/09/12 12:19:11;;;;;;;2.78;1.10;;;33.90;31.70;;;;;;6317155;22;20015;-75
2021/09/12 12:21:40;;;;;;;1.70;1.00;;;35.10;30.60;;;;;;6316216;22;20074;-74
2021/09/12 12:24:11;;;;;;;;;;;35.50;30.20;;;;;;6317703;22;20033;-75
2021/09/12 12:26:47;;;;;;;1.58;0.82;;;33.30;30.80;;;;;;6316785;22;19926;-75
2021/09/12 12:29:26;;;;;;;1.30;0.60;;;35.10;29.90;;;;;;6316564;22;20323;-75
2021/09/12 12:31:55;;;;;;;1.50;0.80;;;35.80;26.70;;;;;;6316247;22;20038;-76
2021/09/12 12:34:40;;;;;;;1.77;0.85;;;34.50;30.10;;;;;;6316906;22;20035;-75
2021/09/12 12:37:08;;;;;;;3.70;0.95;;;34.60;29.40;;;;;;6315060;22;20035;-74
2021/09/12 12:39:38;;;;;;;1.65;1.00;;;35.20;28.90;;;;;;6314690;22;20087;-74
2021/09/12 12:42:06;;;;;;;1.23;0.82;;;34.50;29.70;;;;;;6315464;22;20062;-73
2021/09/12 12:44:44;;;;;;;1.80;0.85;;;35.10;29.70;;;;;;6315442;22;20019;-74
2021/09/12 12:47:14;;;;;;;;;;;35.30;29.60;;;;;;6316737;22;20031;-75
2021/09/12 12:49:42;;;;;;;1.02;0.60;;;33.60;29.60;;;;;;6316370;22;19978;-74
2021/09/12 12:52:11;;;;;;;1.35;0.82;;;33.30;30.50;;;;;;6315099;22;20015;-74
2021/09/12 12:54:40;;;;;;;2.83;0.70;;;32.60;30.70;;;;;;6315731;22;20027;-74